createdAt,value
2023-01-07T13:30:25.343Z,14
2023-01-07T13:35:25.341Z,13
2023-01-07T13:45:25.350Z,16
2023-01-07T13:50:25.372Z,16
2023-01-07T13:55:25.364Z,17
2023-01-07T14:00:25.357Z,21
2023-01-07T14:10:25.378Z,15
2023-01-07T14:20:25.347Z,19
2023-01-07T14:30:25.362Z,18
2023-01-07T14:35:25.365Z,18
2023-01-07T14:40:25.343Z,18
2023-01-07T14:45:25.374Z,8
2023-01-07T14:50:25.365Z,21
2023-01-07T14:55:25.362Z,20
2023-01-07T15:00:25.344Z,20
2023-01-07T15:05:25.407Z,19
2023-01-07T15:10:25.378Z,16
2023-01-07T15:15:25.386Z,17
2023-01-07T15:20:25.397Z,19
2023-01-07T15:25:25.386Z,15
2023-01-07T15:30:25.385Z,26
2023-01-07T15:35:25.368Z,18
2023-01-07T15:40:25.403Z,30
2023-01-07T15:45:25.431Z,27
2023-01-07T15:50:25.389Z,42
2023-01-07T15:55:25.413Z,36
2023-01-07T16:00:25.401Z,24
2023-01-07T16:05:25.382Z,28
2023-01-07T16:10:25.372Z,23
2023-01-07T16:15:25.396Z,27
2023-01-07T16:20:25.405Z,26
2023-01-07T16:25:25.383Z,17
2023-01-07T16:30:25.382Z,16
2023-01-07T16:35:25.374Z,41
2023-01-07T16:40:25.382Z,37
2023-01-07T16:45:25.448Z,24
2023-01-07T16:50:25.414Z,44
2023-01-07T16:55:25.407Z,32
2023-01-07T17:00:25.466Z,32
2023-01-07T17:05:25.423Z,40
2023-01-07T17:10:25.420Z,38
2023-01-07T17:15:25.398Z,39
2023-01-07T17:20:25.395Z,31
2023-01-07T17:25:25.424Z,37
2023-01-07T17:30:25.423Z,35
2023-01-07T17:35:25.415Z,37
2023-01-07T17:45:25.423Z,40
2023-01-07T17:50:25.406Z,36
2023-01-07T17:55:25.407Z,34
2023-01-07T18:00:25.428Z,34
2023-01-07T18:05:25.427Z,33
2023-01-07T18:20:25.436Z,30
2023-01-07T18:30:25.420Z,24
2023-01-07T19:00:25.426Z,26
2023-01-07T19:10:25.426Z,30
